createdAt,value
2018-09-14T00:00:37.029Z,4.87
2018-09-14T00:03:06.155Z,5.23
2018-09-14T00:05:34.213Z,4.87
2018-09-14T00:08:02.742Z,5.63
2018-09-14T00:10:30.816Z,5.33
2018-09-14T00:12:58.857Z,5.10
2018-09-14T00:15:26.919Z,4.73
2018-09-14T00:17:54.982Z,5.03
2018-09-14T00:20:23.149Z,5.10
2018-09-14T00:22:51.331Z,5.27
2018-09-14T00:25:19.351Z,5.30
2018-09-14T00:27:47.532Z,5.20
2018-09-14T00:30:15.664Z,5.30
2018-09-14T00:32:43.678Z,5.43
2018-09-14T00:35:11.706Z,5.63
2018-09-14T00:37:39.763Z,5.40
2018-09-14T00:40:07.783Z,5.50
2018-09-14T00:42:35.812Z,5.50
2018-09-14T00:45:03.851Z,5.70
2018-09-14T00:47:31.903Z,5.53
2018-09-14T00:49:59.920Z,5.30
2018-09-14T00:52:27.978Z,5.97
2018-09-14T00:54:56.130Z,5.43
2018-09-14T00:57:24.151Z,5.20
2018-09-14T00:59:52.172Z,5.83
2018-09-14T01:02:20.779Z,5.77
2018-09-14T01:04:48.807Z,5.70
2018-09-14T01:07:16.837Z,5.90
2018-09-14T01:09:44.872Z,5.63
2018-09-14T01:12:12.929Z,5.97
2018-09-14T01:14:40.951Z,5.50
2018-09-14T01:17:09.958Z,5.90
2018-09-14T01:19:38.030Z,5.77
2018-09-14T01:22:06.291Z,5.20
2018-09-14T01:24:34.338Z,6.07
2018-09-14T01:27:02.398Z,5.67
2018-09-14T01:29:30.427Z,5.47
2018-09-14T01:31:58.466Z,6.10
2018-09-14T01:34:26.502Z,6.10
2018-09-14T01:36:54.524Z,6.20
2018-09-14T01:39:22.564Z,6.17
2018-09-14T01:41:50.566Z,5.87
2018-09-14T01:44:18.591Z,5.73
2018-09-14T01:46:46.651Z,6.20
2018-09-14T01:49:14.684Z,6.53
2018-09-14T01:51:42.724Z,5.20
2018-09-14T01:54:10.771Z,5.40
2018-09-14T01:56:38.838Z,6.20
2018-09-14T01:59:06.880Z,5.97
2018-09-14T02:01:34.907Z,5.37
2018-09-14T02:04:02.925Z,5.33
2018-09-14T02:06:30.953Z,5.40
2018-09-14T02:09:00.258Z,5.00
2018-09-14T02:11:28.390Z,5.17
2018-09-14T02:13:56.471Z,5.10
2018-09-14T02:16:24.607Z,5.63
2018-09-14T02:18:52.737Z,5.53
2018-09-14T02:21:20.855Z,5.63
2018-09-14T02:23:48.972Z,5.60
2018-09-14T02:26:17.042Z,5.93
2018-09-14T02:28:45.156Z,5.50
2018-09-14T02:31:13.268Z,6.60
2018-09-14T02:33:41.371Z,5.83
2018-09-14T02:36:09.479Z,5.97
2018-09-14T02:38:37.658Z,6.10
2018-09-14T02:41:05.727Z,7.07
2018-09-14T02:43:33.816Z,6.17
2018-09-14T02:46:01.918Z,6.57
2018-09-14T02:48:30.055Z,6.37
2018-09-14T02:50:58.187Z,6.50
2018-09-14T02:53:26.371Z,7.13
2018-09-14T02:55:54.493Z,5.97
2018-09-14T02:58:22.574Z,6.40
2018-09-14T03:00:50.995Z,6.90
2018-09-14T03:03:19.237Z,6.93
2018-09-14T03:05:47.351Z,6.80
2018-09-14T03:10:49.739Z,7.13
2018-09-14T03:13:17.876Z,7.00
2018-09-14T03:15:46.066Z,6.80
2018-09-14T03:18:14.228Z,7.47
2018-09-14T03:20:42.419Z,7.20
2018-09-14T03:23:10.580Z,7.13
2018-09-14T03:25:38.722Z,7.33
2018-09-14T03:28:06.837Z,8.33
2018-09-14T03:30:35.869Z,8.87
2018-09-14T03:33:04.421Z,9.90
2018-09-14T03:35:32.584Z,10.37
2018-09-14T03:38:00.764Z,9.83
2018-09-14T03:40:28.927Z,10.13
2018-09-14T03:42:57.037Z,9.63
2018-09-14T03:45:25.245Z,11.13
2018-09-14T03:47:53.384Z,10.97
2018-09-14T03:50:21.537Z,10.70
2018-09-14T03:52:49.707Z,11.17
2018-09-14T03:55:18.042Z,10.63
2018-09-14T03:57:46.184Z,10.80
2018-09-14T04:00:14.320Z,10.63
2018-09-14T04:02:42.503Z,11.10
2018-09-14T04:05:10.649Z,11.60
2018-09-14T04:07:38.881Z,12.10
2018-09-14T04:10:06.966Z,12.00
2018-09-14T04:12:35.069Z,13.17
2018-09-14T04:15:03.839Z,12.27
2018-09-14T04:17:32.044Z,12.53
2018-09-14T04:20:00.198Z,13.50
2018-09-14T04:22:28.347Z,13.23
2018-09-14T04:24:56.522Z,13.40
2018-09-14T04:27:24.663Z,13.73
2018-09-14T04:29:52.763Z,12.40
2018-09-14T04:32:20.947Z,13.37
2018-09-14T04:34:49.151Z,13.20
2018-09-14T04:37:17.284Z,13.63
2018-09-14T04:39:45.389Z,12.40
2018-09-14T04:42:13.536Z,13.30
2018-09-14T04:44:41.671Z,12.87
2018-09-14T04:47:09.827Z,12.77
2018-09-14T04:49:38.256Z,12.93
2018-09-14T04:52:06.473Z,13.17
2018-09-14T04:54:34.628Z,12.17
2018-09-14T04:57:02.902Z,13.60
2018-09-14T04:59:31.121Z,13.10
2018-09-14T05:01:59.276Z,14.57
2018-09-14T05:04:27.447Z,14.53
2018-09-14T05:06:55.588Z,13.47
2018-09-14T05:09:23.802Z,14.27
2018-09-14T05:11:51.935Z,14.30
2018-09-14T05:14:20.723Z,13.80
2018-09-14T05:16:48.839Z,14.77
2018-09-14T05:19:17.015Z,15.20
2018-09-14T05:21:45.147Z,14.17
2018-09-14T05:24:13.277Z,13.57
2018-09-14T05:26:41.371Z,13.30
2018-09-14T05:29:09.492Z,13.30
2018-09-14T05:31:37.587Z,13.07
2018-09-14T05:34:05.691Z,13.57
2018-09-14T05:36:33.784Z,13.03
2018-09-14T05:39:01.892Z,13.30
2018-09-14T05:41:30.039Z,13.53
2018-09-14T05:43:58.133Z,13.30
2018-09-14T05:46:26.296Z,12.80
2018-09-14T05:48:54.502Z,14.20
2018-09-14T05:51:22.629Z,13.27
2018-09-14T05:53:50.763Z,13.33
2018-09-14T05:56:18.875Z,13.17
2018-09-14T05:58:46.963Z,13.30
2018-09-14T06:01:15.080Z,12.23
2018-09-14T06:03:43.180Z,12.80
2018-09-14T06:06:11.273Z,12.90
2018-09-14T06:08:39.425Z,12.80
2018-09-14T06:11:07.654Z,13.23
2018-09-14T06:13:35.786Z,12.10
2018-09-14T06:16:04.167Z,12.63
2018-09-14T06:18:32.344Z,12.00
2018-09-14T06:21:00.526Z,12.27
2018-09-14T06:23:28.709Z,12.17
2018-09-14T06:25:56.807Z,11.30
2018-09-14T06:28:24.931Z,10.90
2018-09-14T06:30:53.131Z,10.63
2018-09-14T06:33:21.418Z,10.07
2018-09-14T06:35:49.759Z,8.43
2018-09-14T06:38:17.890Z,8.07
2018-09-14T06:40:45.943Z,7.23
2018-09-14T06:43:14.066Z,7.23
2018-09-14T06:45:42.264Z,7.00
2018-09-14T06:48:10.350Z,6.53
2018-09-14T06:50:38.558Z,6.93
2018-09-14T06:53:06.702Z,6.60
2018-09-14T06:55:34.843Z,6.30
2018-09-14T06:58:02.963Z,7.73
2018-09-14T07:00:31.136Z,8.40
2018-09-14T07:02:59.188Z,8.80
2018-09-14T07:05:27.349Z,8.23
2018-09-14T07:07:55.431Z,8.27
2018-09-14T07:10:23.575Z,7.87
2018-09-14T07:12:51.778Z,8.10
2018-09-14T07:15:19.926Z,8.57
2018-09-14T07:17:48.026Z,7.70
2018-09-14T07:20:16.185Z,7.23
2018-09-14T07:22:44.280Z,6.97
2018-09-14T07:25:12.425Z,7.00
2018-09-14T07:27:40.831Z,7.13
2018-09-14T07:30:08.978Z,7.77
2018-09-14T07:32:37.088Z,7.80
2018-09-14T07:35:05.243Z,7.70
2018-09-14T07:37:33.398Z,7.03
2018-09-14T07:40:01.508Z,7.93
2018-09-14T07:42:29.680Z,9.10
2018-09-14T07:44:57.719Z,7.87
2018-09-14T07:47:25.823Z,8.93
2018-09-14T07:49:53.989Z,9.33
2018-09-14T07:52:22.083Z,8.87
2018-09-14T07:54:50.211Z,9.30
2018-09-14T07:57:18.302Z,9.30
2018-09-14T07:59:46.431Z,10.70
2018-09-14T08:02:14.548Z,9.30
2018-09-14T08:04:42.691Z,10.27
2018-09-14T08:07:10.808Z,10.37
2018-09-14T08:09:39.052Z,10.93
2018-09-14T08:12:07.319Z,11.63
2018-09-14T08:14:35.425Z,10.20
2018-09-14T08:17:03.535Z,10.80
2018-09-14T08:19:31.646Z,9.63
2018-09-14T08:21:59.899Z,9.57
2018-09-14T08:24:28.028Z,9.33
2018-09-14T08:26:56.182Z,10.67
2018-09-14T08:29:24.299Z,9.73
2018-09-14T08:31:52.412Z,8.80
2018-09-14T08:34:20.520Z,9.77
2018-09-14T08:36:48.670Z,9.97
2018-09-14T08:39:16.878Z,10.60
2018-09-14T08:41:44.971Z,9.23
2018-09-14T08:44:13.145Z,9.27
2018-09-14T08:46:41.348Z,8.43
2018-09-14T08:49:09.466Z,7.97
2018-09-14T08:51:37.670Z,7.77
2018-09-14T08:54:05.831Z,8.17
2018-09-14T08:56:33.932Z,7.67
2018-09-14T08:59:02.088Z,8.17
2018-09-14T09:01:30.178Z,7.63
2018-09-14T09:03:58.310Z,7.93
2018-09-14T09:06:26.596Z,7.77
2018-09-14T09:08:54.810Z,8.33
2018-09-14T09:11:22.954Z,7.87
2018-09-14T09:13:51.056Z,7.63
2018-09-14T09:16:19.189Z,7.30
2018-09-14T09:18:47.573Z,7.20
2018-09-14T09:21:15.814Z,7.37
2018-09-14T09:23:44.113Z,6.93
2018-09-14T09:26:12.224Z,6.87
2018-09-14T09:28:40.364Z,6.27
2018-09-14T09:31:08.543Z,6.03
2018-09-14T09:33:36.756Z,7.77
2018-09-14T09:36:05.537Z,7.30
2018-09-14T09:38:33.667Z,5.80
2018-09-14T09:41:01.802Z,6.43
2018-09-14T09:43:30.139Z,6.60
2018-09-14T09:45:58.151Z,5.97
2018-09-14T09:48:26.283Z,5.87
2018-09-14T09:50:54.396Z,6.83
2018-09-14T09:53:22.497Z,6.23
2018-09-14T09:55:50.619Z,6.33
2018-09-14T09:58:18.763Z,6.50
2018-09-14T10:01:50.331Z,5.97
2018-09-14T10:04:23.901Z,7.67
2018-09-14T10:06:52.017Z,6.20
2018-09-14T10:09:20.159Z,6.20
2018-09-14T10:11:48.358Z,6.53
2018-09-14T10:14:16.615Z,5.80
2018-09-14T10:16:44.687Z,5.93
2018-09-14T10:19:12.773Z,5.50
2018-09-14T10:21:41.005Z,5.30
2018-09-14T10:24:09.116Z,6.67
2018-09-14T10:26:37.284Z,6.17
2018-09-14T10:29:05.671Z,5.20
2018-09-14T10:31:33.782Z,3.80
2018-09-14T10:34:01.899Z,3.60
2018-09-14T10:36:29.978Z,4.10
2018-09-14T10:38:58.069Z,3.70
2018-09-14T10:41:26.171Z,3.60
2018-09-14T10:43:54.276Z,3.40
2018-09-14T10:46:22.388Z,3.43
2018-09-14T10:48:50.514Z,2.93
2018-09-14T10:51:18.615Z,3.00
2018-09-14T10:53:46.770Z,2.60
2018-09-14T10:56:14.952Z,2.80
2018-09-14T10:58:44.022Z,2.53
2018-09-14T11:01:13.562Z,2.83
2018-09-14T11:03:41.694Z,2.77
2018-09-14T11:06:09.903Z,2.40
2018-09-14T11:08:38.086Z,2.33
2018-09-14T11:11:06.236Z,2.60
2018-09-14T11:13:34.319Z,2.47
2018-09-14T11:16:02.437Z,3.10
2018-09-14T11:18:30.775Z,3.40
2018-09-14T11:20:58.839Z,3.77
2018-09-14T11:23:27.025Z,3.20
2018-09-14T11:25:55.239Z,2.57
2018-09-14T11:28:23.423Z,2.63
2018-09-14T11:30:51.518Z,2.70
2018-09-14T11:33:19.768Z,2.87
2018-09-14T11:35:47.859Z,3.30
2018-09-14T11:38:16.048Z,2.63
2018-09-14T11:40:44.137Z,2.60
2018-09-14T11:43:12.235Z,3.13
2018-09-14T11:45:40.335Z,2.57
2018-09-14T11:48:08.431Z,2.80
2018-09-14T11:50:36.594Z,2.13
2018-09-14T11:53:04.805Z,2.20
2018-09-14T11:55:33.047Z,2.23
2018-09-14T11:58:01.406Z,2.60
2018-09-14T12:00:29.502Z,2.40
2018-09-14T12:02:57.591Z,2.23
2018-09-14T12:05:25.731Z,2.73
2018-09-14T12:07:53.889Z,2.47
2018-09-14T12:10:21.992Z,2.10
2018-09-14T12:12:50.141Z,1.93
2018-09-14T12:15:18.251Z,1.73
2018-09-14T12:17:46.380Z,1.80
2018-09-14T12:20:14.483Z,1.90
2018-09-14T12:22:42.638Z,1.53
2018-09-14T12:25:10.849Z,1.80
2018-09-14T12:27:39.019Z,1.60
2018-09-14T12:30:07.157Z,1.70
2018-09-14T12:32:35.251Z,1.70
2018-09-14T12:35:03.359Z,1.63
2018-09-14T12:37:31.472Z,1.70
2018-09-14T12:39:59.573Z,1.40
2018-09-14T12:42:27.710Z,1.50
2018-09-14T12:44:55.887Z,1.93
2018-09-14T12:47:24.058Z,2.07
2018-09-14T12:49:52.163Z,1.63
2018-09-14T12:52:20.307Z,1.50
2018-09-14T12:54:48.415Z,1.20
2018-09-14T12:57:16.548Z,1.40
2018-09-14T12:59:44.649Z,1.60
2018-09-14T13:02:12.730Z,1.53
2018-09-14T13:04:40.929Z,1.87
2018-09-14T13:07:09.042Z,1.30
2018-09-14T13:09:37.634Z,1.50
2018-09-14T13:12:05.807Z,1.50
2018-09-14T13:14:33.959Z,1.40
2018-09-14T13:17:02.047Z,1.47
2018-09-14T13:19:30.734Z,1.60
2018-09-14T13:21:58.836Z,2.10
2018-09-14T13:24:26.943Z,1.67
2018-09-14T13:26:55.066Z,1.50
2018-09-14T13:29:23.223Z,1.50
2018-09-14T13:31:51.320Z,1.70
2018-09-14T13:34:19.513Z,2.10
2018-09-14T13:36:47.649Z,1.90
2018-09-14T13:39:15.763Z,1.70
2018-09-14T13:41:43.908Z,1.60
2018-09-14T13:44:12.018Z,1.80
2018-09-14T13:46:40.157Z,1.80
2018-09-14T13:49:08.315Z,1.90
2018-09-14T13:51:36.420Z,1.53
2018-09-14T13:54:04.601Z,1.53
2018-09-14T13:56:32.734Z,1.87
2018-09-14T13:59:01.029Z,1.40
2018-09-14T14:01:29.277Z,1.47
2018-09-14T14:03:57.356Z,1.60
2018-09-14T14:06:25.480Z,2.40
2018-09-14T14:08:53.624Z,1.40
2018-09-14T14:11:22.088Z,1.30
2018-09-14T14:13:50.370Z,1.83
2018-09-14T14:16:18.463Z,1.47
2018-09-14T14:18:46.622Z,1.70
2018-09-14T14:21:14.755Z,1.70
2018-09-14T14:23:42.858Z,1.50
2018-09-14T14:26:10.969Z,1.40
2018-09-14T14:28:39.093Z,1.40
2018-09-14T14:31:07.291Z,1.40
2018-09-14T14:33:35.451Z,1.33
2018-09-14T14:36:03.696Z,1.47
2018-09-14T14:38:32.009Z,1.30
2018-09-14T14:41:00.107Z,1.60
2018-09-14T14:43:28.238Z,1.10
2018-09-14T14:45:56.347Z,1.20
2018-09-14T14:48:24.524Z,1.50
2018-09-14T14:50:52.711Z,1.23
2018-09-14T14:53:20.970Z,1.27
2018-09-14T14:55:49.115Z,1.37
2018-09-14T14:58:17.185Z,1.03
2018-09-14T15:00:45.376Z,1.20
2018-09-14T15:03:13.483Z,1.20
2018-09-14T15:05:41.781Z,1.00
2018-09-14T15:08:09.895Z,1.17
2018-09-14T15:10:38.082Z,0.93
2018-09-14T15:13:06.247Z,1.10
2018-09-14T15:15:34.327Z,1.40
2018-09-14T15:18:02.489Z,1.00
2018-09-14T15:20:30.595Z,1.30
2018-09-14T15:22:58.823Z,1.20
2018-09-14T15:25:26.914Z,1.20
2018-09-14T15:27:55.013Z,1.43
2018-09-14T15:30:23.240Z,1.20
2018-09-14T15:32:51.531Z,1.30
2018-09-14T15:35:19.638Z,0.97
2018-09-14T15:37:48.473Z,1.10
2018-09-14T15:40:16.589Z,1.13
2018-09-14T15:42:44.774Z,1.20
2018-09-14T15:45:12.904Z,1.03
2018-09-14T15:47:42.375Z,1.20
2018-09-14T15:50:10.588Z,1.70
2018-09-14T15:52:38.765Z,1.30
2018-09-14T15:55:06.875Z,1.33
2018-09-14T15:57:35.055Z,1.97
2018-09-14T16:00:03.205Z,1.10
2018-09-14T16:02:31.345Z,1.20
2018-09-14T16:04:59.546Z,1.20
2018-09-14T16:07:27.716Z,1.40
2018-09-14T16:09:55.887Z,1.30
2018-09-14T16:12:24.092Z,1.10
2018-09-14T16:14:52.346Z,0.97
2018-09-14T16:17:20.495Z,1.00
2018-09-14T16:19:48.915Z,1.20
2018-09-14T16:22:17.605Z,1.07
2018-09-14T16:24:46.039Z,1.27
2018-09-14T16:27:14.533Z,1.17
2018-09-14T16:29:42.957Z,0.83
2018-09-14T16:32:11.444Z,1.23
2018-09-14T16:34:39.851Z,1.20
2018-09-14T16:37:08.306Z,0.97
2018-09-14T16:39:36.716Z,1.20
2018-09-14T16:42:05.145Z,1.50
2018-09-14T16:44:33.557Z,1.40
2018-09-14T16:47:01.952Z,1.50
2018-09-14T16:49:30.370Z,1.20
2018-09-14T16:51:58.779Z,1.40
2018-09-14T16:54:27.199Z,1.53
2018-09-14T16:56:55.734Z,1.40
2018-09-14T16:59:24.146Z,1.30
2018-09-14T17:01:52.599Z,1.40
2018-09-14T17:04:21.055Z,1.17
2018-09-14T17:06:49.713Z,1.37
2018-09-14T17:09:18.208Z,1.37
2018-09-14T17:11:46.712Z,1.10
2018-09-14T17:14:15.177Z,1.10
2018-09-14T17:16:43.582Z,1.37
2018-09-14T17:19:12.007Z,1.30
2018-09-14T17:21:40.431Z,1.47
2018-09-14T17:24:08.835Z,1.10
2018-09-14T17:26:37.256Z,1.27
2018-09-14T17:29:05.688Z,1.17
2018-09-14T17:31:34.170Z,0.80
2018-09-14T17:34:02.271Z,1.00
2018-09-14T17:36:30.634Z,0.97
2018-09-14T17:38:58.757Z,1.50
2018-09-14T17:41:26.901Z,1.30
2018-09-14T17:43:55.065Z,1.10
2018-09-14T17:46:23.225Z,1.10
2018-09-14T17:48:51.347Z,0.90
2018-09-14T17:51:19.569Z,1.10
2018-09-14T17:53:47.680Z,0.97
2018-09-14T17:56:15.792Z,1.10
2018-09-14T17:58:43.939Z,1.00
2018-09-14T18:01:12.102Z,1.00
2018-09-14T18:03:40.324Z,0.90
2018-09-14T18:06:08.879Z,0.90
2018-09-14T18:08:37.069Z,1.00
2018-09-14T18:11:05.217Z,0.90
2018-09-14T18:13:33.353Z,0.93
2018-09-14T18:16:01.481Z,1.20
2018-09-14T18:18:30.255Z,1.20
2018-09-14T18:20:58.526Z,1.20
2018-09-14T18:23:26.716Z,1.50
2018-09-14T18:25:54.894Z,1.07
2018-09-14T18:28:23.129Z,1.20
2018-09-14T18:30:51.400Z,1.03
2018-09-14T18:33:19.803Z,1.20
2018-09-14T18:35:48.069Z,1.20
2018-09-14T18:38:16.197Z,1.20
2018-09-14T18:40:44.326Z,1.50
2018-09-14T18:43:12.509Z,1.27
2018-09-14T18:45:40.731Z,1.00
2018-09-14T18:48:08.896Z,1.13
2018-09-14T18:50:37.108Z,1.13
2018-09-14T18:53:05.238Z,1.30
2018-09-14T18:55:33.361Z,1.70
2018-09-14T18:58:01.490Z,1.70
2018-09-14T19:00:29.626Z,1.37
2018-09-14T19:02:57.805Z,1.30
2018-09-14T19:05:26.032Z,1.40
2018-09-14T19:07:54.239Z,1.00
2018-09-14T19:10:22.444Z,1.27
2018-09-14T19:12:50.586Z,1.17
2018-09-14T19:15:18.808Z,1.50
2018-09-14T19:17:46.935Z,1.30
2018-09-14T19:20:15.036Z,1.47
2018-09-14T19:22:43.187Z,1.47
2018-09-14T19:25:11.364Z,1.50
2018-09-14T19:27:39.540Z,1.40
2018-09-14T19:30:07.689Z,1.53
2018-09-14T19:32:35.815Z,1.40
2018-09-14T19:35:03.966Z,1.70
2018-09-14T19:37:32.162Z,1.03
2018-09-14T19:40:00.316Z,1.30
2018-09-14T19:42:28.528Z,1.03
2018-09-14T19:44:56.655Z,2.07
2018-09-14T19:47:24.827Z,1.30
2018-09-14T19:49:52.963Z,1.57
2018-09-14T19:52:21.075Z,1.50
2018-09-14T19:54:49.195Z,1.47
2018-09-14T19:57:17.342Z,1.57
2018-09-14T19:59:45.431Z,1.37
2018-09-14T20:02:13.550Z,1.73
2018-09-14T20:04:41.789Z,1.50
2018-09-14T20:07:09.903Z,2.00
2018-09-14T20:09:38.096Z,1.53
2018-09-14T20:12:06.271Z,1.77
2018-09-14T20:14:34.459Z,2.13
2018-09-14T20:17:02.587Z,1.40
2018-09-14T20:19:30.928Z,2.20
2018-09-14T20:21:59.047Z,1.60
2018-09-14T20:24:27.244Z,1.70
2018-09-14T20:26:55.403Z,1.97
2018-09-14T20:29:23.520Z,1.80
2018-09-14T20:31:51.702Z,2.17
2018-09-14T20:34:19.807Z,1.33
2018-09-14T20:36:47.946Z,1.83
2018-09-14T20:39:16.118Z,1.73
2018-09-14T20:41:44.246Z,2.40
2018-09-14T20:44:12.495Z,1.90
2018-09-14T20:46:40.600Z,2.20
2018-09-14T20:49:08.728Z,1.93
2018-09-14T20:51:36.901Z,1.80
2018-09-14T20:54:05.090Z,1.80
2018-09-14T20:56:33.266Z,1.83
2018-09-14T20:59:01.419Z,2.00
2018-09-14T21:01:29.698Z,2.07
2018-09-14T21:03:57.859Z,2.10
2018-09-14T21:06:25.972Z,1.93
2018-09-14T21:08:54.171Z,2.33
2018-09-14T21:11:22.342Z,2.53
2018-09-14T21:13:50.509Z,2.27
2018-09-14T21:16:18.672Z,2.03
2018-09-14T21:18:47.066Z,2.50
2018-09-14T21:21:15.244Z,2.00
2018-09-14T21:23:43.481Z,2.30
2018-09-14T21:26:11.834Z,1.70
2018-09-14T21:28:40.045Z,1.87
2018-09-14T21:31:08.207Z,2.13
2018-09-14T21:33:36.386Z,1.90
2018-09-14T21:36:04.564Z,1.80
2018-09-14T21:38:32.683Z,2.10
2018-09-14T21:41:00.899Z,1.77
2018-09-14T21:43:29.076Z,2.10
2018-09-14T21:45:57.447Z,1.80
2018-09-14T21:48:25.800Z,1.80
2018-09-14T21:50:53.929Z,1.53
2018-09-14T21:53:22.116Z,1.40
2018-09-14T21:55:50.263Z,1.67
2018-09-14T21:58:18.414Z,2.27
2018-09-14T22:00:52.087Z,2.03
2018-09-14T22:03:20.224Z,1.90
2018-09-14T22:05:48.353Z,1.73
2018-09-14T22:08:16.564Z,1.80
2018-09-14T22:10:44.741Z,1.70
2018-09-14T22:13:12.975Z,1.73
2018-09-14T22:15:41.212Z,1.90
2018-09-14T22:18:09.328Z,1.90
2018-09-14T22:20:37.442Z,2.00
2018-09-14T22:23:05.872Z,1.63
2018-09-14T22:25:34.058Z,1.10
2018-09-14T22:28:02.241Z,1.53
2018-09-14T22:30:30.363Z,1.93
2018-09-14T22:32:58.502Z,1.50
2018-09-14T22:35:26.717Z,1.43
2018-09-14T22:37:54.789Z,1.90
2018-09-14T22:40:22.912Z,1.90
2018-09-14T22:42:51.080Z,1.80
2018-09-14T22:45:19.270Z,2.20
2018-09-14T22:47:47.419Z,1.87
2018-09-14T22:50:15.536Z,1.40
2018-09-14T22:52:43.694Z,1.50
2018-09-14T22:55:11.839Z,1.70
2018-09-14T22:57:40.024Z,1.80
2018-09-14T23:00:08.178Z,1.70
2018-09-14T23:02:36.288Z,1.53
2018-09-14T23:05:04.420Z,1.80
2018-09-14T23:07:32.519Z,1.60
2018-09-14T23:10:00.670Z,1.47
2018-09-14T23:12:28.759Z,2.07
2018-09-14T23:14:56.861Z,1.30
2018-09-14T23:17:24.998Z,1.53
2018-09-14T23:19:53.082Z,1.57
2018-09-14T23:22:21.246Z,1.90
2018-09-14T23:24:49.423Z,1.80
2018-09-14T23:27:17.578Z,1.33
2018-09-14T23:29:45.785Z,1.70
2018-09-14T23:32:13.993Z,1.90
2018-09-14T23:34:42.107Z,2.10
2018-09-14T23:37:10.186Z,2.00
2018-09-14T23:39:38.295Z,1.70
2018-09-14T23:42:06.422Z,2.10
2018-09-14T23:44:34.609Z,2.10
2018-09-14T23:47:02.785Z,2.37
2018-09-14T23:49:31.163Z,2.53
2018-09-14T23:51:59.326Z,2.60
2018-09-14T23:54:27.515Z,1.90
2018-09-14T23:56:55.675Z,2.80
2018-09-14T23:59:23.847Z,2.43
